Etusivu
METAR-TAF:

METAR-TAF

Lentoasemat :

Boone Municipal Airport

Boone, Iowa, Yhdysvallat

Leveyspiiri: 42-03N, Pituuspiiri: 093-51W, korkeus merenpinnasta: 354 m

Tämänhetkinen sää

Tämä raportti tehtiin 7 minuuttia sitten, kello 13.35 UTC
Tuuli 5 kn lännestä/luoteesta
Lämpötila 17°C
Kosteus 63%
Ilmanpaine 1009 hPa
Näkyvyys: 16.1 km
Muutamia pilviä 6000 ft:n korkeudessa
Muutamia pilviä 7500 ft:n korkeudessa
Pilvistä 10000 ft:n korkeudessa

METAR: KBNW 271335Z AUTO 30005KT 10SM FEW060 FEW075 OVC100 17/10 A2979 RMK AO2

Aika: 08:42 (13:42 UTC)


TAF: puuttuu

Säähavainnot ja -ennusteet yli 4000 lentoasemalta (METAR- ja TAF-raportit).

Käytössä olevat sääasemat on merkitty karttaan keltaisilla ja punaisilla pisteillä.

Aseta hiiri pisteen päälle nähdäksesi sääaseman nimen.

Klikkaa sitten nähdäksesi säähavainnot ja -ennusteet.

Kartan vaihtaminen: klikkaa mustalla rastilla varustettuja vihreitä pisteitä, niin voit zoomata sisään; viivalla varustettua vihreää pistettä, niin voit zoomata ulos tai vihreitä nuolia, niin pääset viereisille kartoille.


METAR-TAF: